Time;durP1;ratioP1;P1;durP2;ratioP2;P2;SDS_P1;SDS_P2;PMS_P1;PMS_P2;Temp;Humidity;BMP_temperature;BMP_pressure;BME280_temperature;BME280_humidity;BME280_pressure;Samples;Min_cycle;Max_cycle;Signal;HPM_P1;HPM_P2
2023/05/19 00:02:14;;;;;;;6.70;2.78;;;12.20;58.70;;;;;;5033260;28;20026;-73
2023/05/19 00:04:40;;;;;;;9.13;3.22;;;12.20;58.60;;;;;;5034357;28;20112;-72
2023/05/19 00:07:09;;;;;;;8.43;2.72;;;12.20;58.70;;;;;;5034276;28;20048;-72
2023/05/19 00:09:35;;;;;;;8.70;2.63;;;12.20;58.30;;;;;;5034323;28;20021;-72
2023/05/19 00:12:01;;;;;;;12.15;2.83;;;12.20;58.50;;;;;;5034288;28;20021;-73
2023/05/19 00:14:27;;;;;;;12.15;3.00;;;12.10;58.60;;;;;;5034285;28;20029;-73
2023/05/19 00:16:54;;;;;;;7.25;2.53;;;12.10;58.90;;;;;;5034178;28;20166;-72
2023/05/19 00:19:20;;;;;;;7.25;3.05;;;12.10;58.80;;;;;;5034227;28;20470;-72
2023/05/19 00:21:46;;;;;;;8.98;3.10;;;12.10;58.80;;;;;;5034063;28;20152;-72
2023/05/19 00:24:12;;;;;;;8.13;3.08;;;12.10;58.80;;;;;;5034107;28;20032;-73
2023/05/19 00:26:37;;;;;;;7.57;2.90;;;12.10;58.80;;;;;;5033903;28;20138;-72
2023/05/19 00:29:03;;;;;;;4.60;2.30;;;12.10;58.70;;;;;;5034089;28;20022;-72
2023/05/19 00:31:30;;;;;;;7.88;2.97;;;12.10;59.00;;;;;;5033975;28;20022;-72
2023/05/19 00:33:56;;;;;;;6.25;2.28;;;12.10;58.90;;;;;;5033902;28;20044;-73
2023/05/19 00:36:21;;;;;;;10.52;2.83;;;12.00;59.10;;;;;;5032534;28;20470;-73
2023/05/19 00:38:47;;;;;;;9.65;2.60;;;12.10;59.10;;;;;;5033993;28;20022;-72
2023/05/19 00:41:13;;;;;;;7.32;2.47;;;12.00;58.80;;;;;;5033775;28;20104;-73
2023/05/19 00:43:38;;;;;;;7.97;2.58;;;12.00;58.90;;;;;;5032437;28;20029;-72
2023/05/19 00:46:04;;;;;;;5.70;2.47;;;12.00;59.00;;;;;;5033437;28;20065;-72
2023/05/19 00:48:29;;;;;;;10.73;2.63;;;12.10;58.60;;;;;;5033545;28;20136;-72
2023/05/19 00:51:03;;;;;;;7.07;2.25;;;12.10;58.60;;;;;;5032342;28;20451;-73
2023/05/19 00:53:30;;;;;;;4.75;2.33;;;12.00;58.50;;;;;;5033526;28;20025;-73
2023/05/19 00:55:56;;;;;;;5.78;2.53;;;12.00;58.40;;;;;;5033713;28;20026;-72
2023/05/19 00:58:24;;;;;;;5.30;2.20;;;12.00;58.30;;;;;;5033703;28;20032;-74
2023/05/19 01:00:50;;;;;;;6.22;2.63;;;12.00;58.50;;;;;;5033631;28;20025;-73
2023/05/19 01:03:19;;;;;;;8.25;2.67;;;12.00;58.70;;;;;;5033408;28;20496;-72
2023/05/19 01:05:44;;;;;;;9.68;2.80;;;12.00;58.50;;;;;;5033338;28;20029;-72
2023/05/19 01:08:10;;;;;;;4.65;2.33;;;12.00;58.30;;;;;;5033448;28;20048;-72
2023/05/19 01:10:36;;;;;;;10.13;2.85;;;12.00;58.40;;;;;;5033447;28;20030;-73
2023/05/19 01:13:03;;;;;;;7.85;3.00;;;11.90;58.60;;;;;;5033096;28;20065;-73
2023/05/19 01:15:32;;;;;;;4.85;2.35;;;11.90;58.50;;;;;;5033343;28;20018;-74
2023/05/19 01:18:07;;;;;;;8.07;2.83;;;11.90;58.70;;;;;;5032948;28;20030;-73
2023/05/19 01:20:38;;;;;;;6.18;2.25;;;11.90;58.80;;;;;;5033008;28;20041;-73
2023/05/19 01:23:27;;;;;;;6.88;2.50;;;11.90;58.90;;;;;;5033082;28;20355;-73
2023/05/19 01:26:10;;;;;;;9.25;2.72;;;11.90;59.20;;;;;;5033408;28;20051;-73
2023/05/19 01:28:54;;;;;;;4.40;2.15;;;11.90;59.10;;;;;;5032960;28;20069;-73
2023/05/19 01:31:22;;;;;;;8.13;2.85;;;11.90;59.20;;;;;;5033139;28;20160;-73
2023/05/19 01:33:50;;;;;;;8.27;2.92;;;11.80;59.60;;;;;;5033050;28;20029;-72
2023/05/19 01:36:17;;;;;;;4.70;2.00;;;11.90;59.50;;;;;;5031801;28;20025;-73
2023/05/19 01:38:44;;;;;;;4.47;2.13;;;11.90;59.40;;;;;;5032092;28;20068;-73
2023/05/19 01:41:11;;;;;;;5.18;2.83;;;11.90;59.50;;;;;;5032214;28;20026;-72
2023/05/19 01:43:37;;;;;;;6.07;2.78;;;11.90;59.40;;;;;;5032084;28;20021;-73
2023/05/19 01:46:04;;;;;;;7.55;2.50;;;11.90;59.30;;;;;;5032099;28;20076;-73
2023/05/19 01:48:30;;;;;;;3.80;2.20;;;11.90;59.20;;;;;;5032483;28;20501;-74
2023/05/19 01:50:56;;;;;;;6.80;2.45;;;11.90;59.20;;;;;;5032131;28;20125;-74
2023/05/19 01:53:23;;;;;;;9.35;2.65;;;11.90;59.30;;;;;;5032107;28;20458;-74
2023/05/19 01:55:53;;;;;;;6.35;2.47;;;11.90;59.40;;;;;;5032616;28;20033;-74
2023/05/19 01:58:36;;;;;;;8.32;2.15;;;11.90;59.50;;;;;;5037871;28;20025;-76
2023/05/19 02:01:13;;;;;;;5.38;2.10;;;12.00;59.60;;;;;;5039734;28;20167;-75
2023/05/19 02:04:17;;;;;;;3.63;2.20;;;12.00;59.50;;;;;;5042585;28;20025;-75
2023/05/19 02:06:51;;;;;;;4.68;2.20;;;12.00;59.50;;;;;;5041585;28;20041;-75
2023/05/19 02:09:29;;;;;;;6.30;2.63;;;12.00;59.60;;;;;;5041804;28;20033;-75
2023/05/19 02:12:01;;;;;;;7.47;2.50;;;12.00;59.70;;;;;;5039075;28;20604;-73
2023/05/19 02:14:39;;;;;;;7.38;2.50;;;12.00;59.60;;;;;;5036628;28;20038;-74
2023/05/19 02:17:05;;;;;;;6.38;2.50;;;11.90;59.80;;;;;;5035593;28;20374;-74
2023/05/19 02:19:33;;;;;;;4.88;2.30;;;11.80;60.00;;;;;;5036916;28;20030;-74
2023/05/19 02:21:59;;;;;;;8.27;2.90;;;11.90;60.10;;;;;;5036556;28;20026;-75
2023/05/19 02:24:25;;;;;;;7.63;2.60;;;11.80;60.20;;;;;;5035277;28;20033;-75
2023/05/19 02:26:52;;;;;;;4.53;2.22;;;11.80;60.20;;;;;;5036621;28;20095;-75
2023/05/19 02:29:19;;;;;;;6.40;2.50;;;11.80;60.50;;;;;;5036356;28;20430;-75
2023/05/19 02:31:45;;;;;;;3.55;2.08;;;11.80;60.40;;;;;;5036357;28;20033;-74
2023/05/19 02:34:10;;;;;;;5.78;2.60;;;11.80;60.10;;;;;;5036282;28;20087;-75
2023/05/19 02:36:42;;;;;;;6.45;2.53;;;11.80;60.20;;;;;;5036380;28;20029;-75
2023/05/19 02:39:11;;;;;;;5.88;2.65;;;11.80;60.40;;;;;;5036311;28;20031;-75
2023/05/19 02:41:37;;;;;;;5.72;2.50;;;11.70;60.60;;;;;;5035046;28;20013;-75
2023/05/19 02:44:03;;;;;;;5.30;2.78;;;11.70;61.60;;;;;;5036133;28;20025;-75
2023/05/19 02:46:28;;;;;;;6.18;1.90;;;11.70;61.10;;;;;;5036051;28;20046;-75
2023/05/19 02:48:54;;;;;;;4.18;2.22;;;11.70;60.80;;;;;;5036079;28;20048;-75
2023/05/19 02:51:20;;;;;;;5.32;2.35;;;11.60;60.80;;;;;;5035954;28;20108;-75
2023/05/19 02:53:45;;;;;;;4.47;2.30;;;11.60;61.00;;;;;;5035914;28;20083;-75
2023/05/19 02:56:11;;;;;;;4.47;1.90;;;11.60;60.90;;;;;;5034822;28;20109;-75
2023/05/19 02:58:36;;;;;;;5.22;2.03;;;11.60;60.80;;;;;;5035772;28;20014;-75
2023/05/19 03:01:02;;;;;;;4.05;1.98;;;11.70;61.00;;;;;;5035750;28;20040;-75
2023/05/19 03:03:27;;;;;;;4.03;2.10;;;11.70;61.20;;;;;;5035347;28;20430;-74
2023/05/19 03:05:53;;;;;;;3.55;1.88;;;11.60;61.10;;;;;;5035507;28;20029;-75
2023/05/19 03:08:19;;;;;;;4.55;2.25;;;11.60;61.00;;;;;;5035564;28;20029;-75
2023/05/19 03:10:45;;;;;;;4.32;1.95;;;11.60;61.10;;;;;;5035154;28;20079;-75
2023/05/19 03:13:11;;;;;;;4.38;2.35;;;11.60;61.30;;;;;;5035049;28;20083;-75
2023/05/19 03:15:36;;;;;;;4.25;2.22;;;11.60;61.50;;;;;;5035363;28;20452;-75
2023/05/19 03:18:02;;;;;;;4.20;2.15;;;11.60;61.50;;;;;;5035375;28;20101;-75
2023/05/19 03:20:29;;;;;;;3.75;2.22;;;11.50;61.40;;;;;;5035380;28;20474;-75
2023/05/19 03:22:55;;;;;;;2.40;1.75;;;11.50;61.20;;;;;;5035178;28;20014;-74
2023/05/19 03:25:20;;;;;;;4.50;2.40;;;11.50;61.30;;;;;;5035219;28;20030;-74
2023/05/19 03:27:46;;;;;;;3.80;2.05;;;11.50;61.30;;;;;;5035271;28;20065;-75
2023/05/19 03:30:12;;;;;;;3.65;2.10;;;11.50;61.60;;;;;;5035151;28;20022;-74
2023/05/19 03:32:38;;;;;;;3.80;2.53;;;11.50;61.60;;;;;;5035127;28;20033;-74
2023/05/19 03:35:04;;;;;;;2.60;2.08;;;11.40;61.50;;;;;;5035058;28;20059;-74
2023/05/19 03:37:31;;;;;;;3.75;2.20;;;11.40;61.50;;;;;;5034938;28;20022;-74
2023/05/19 03:39:57;;;;;;;2.88;1.98;;;11.40;62.00;;;;;;5034842;28;20021;-74
2023/05/19 03:42:23;;;;;;;2.70;1.70;;;11.40;61.90;;;;;;5034888;28;20109;-74
2023/05/19 03:44:48;;;;;;;5.45;2.30;;;11.40;61.80;;;;;;5034740;28;20097;-74
2023/05/19 03:47:14;;;;;;;4.57;2.22;;;11.30;61.80;;;;;;5033274;28;20054;-74
2023/05/19 03:49:40;;;;;;;2.85;2.13;;;11.30;61.70;;;;;;5034818;28;20032;-74
2023/05/19 03:52:05;;;;;;;3.55;2.30;;;11.40;61.60;;;;;;5034727;28;20029;-74
2023/05/19 03:54:31;;;;;;;3.80;2.00;;;11.40;61.40;;;;;;5034546;28;20026;-74
2023/05/19 03:56:57;;;;;;;3.90;2.15;;;11.30;61.40;;;;;;5034443;28;20071;-74
2023/05/19 03:59:23;;;;;;;3.90;2.50;;;11.30;61.40;;;;;;5033289;28;20112;-74
2023/05/19 04:01:49;;;;;;;3.33;2.10;;;11.30;61.40;;;;;;5034619;28;20363;-73
2023/05/19 04:04:15;;;;;;;3.20;1.95;;;11.30;61.50;;;;;;5034586;28;20022;-74
2023/05/19 04:06:40;;;;;;;3.63;1.80;;;11.30;61.20;;;;;;5034440;28;20112;-73
2023/05/19 04:09:13;;;;;;;2.33;1.65;;;11.30;61.20;;;;;;5034436;28;20029;-73
2023/05/19 04:11:39;;;;;;;4.07;2.30;;;11.30;61.30;;;;;;5034363;28;20075;-73
2023/05/19 04:14:05;;;;;;;5.22;2.03;;;11.30;61.30;;;;;;5034373;28;20022;-73
2023/05/19 04:16:31;;;;;;;3.55;2.08;;;11.30;61.30;;;;;;5034363;28;20036;-72
2023/05/19 04:18:56;;;;;;;3.78;2.42;;;11.30;61.20;;;;;;5034166;28;20022;-72
2023/05/19 04:21:22;;;;;;;4.10;2.45;;;11.40;61.10;;;;;;5034186;28;20087;-73
2023/05/19 04:23:47;;;;;;;2.95;2.03;;;11.30;61.10;;;;;;5033271;28;20151;-73
2023/05/19 04:26:16;;;;;;;4.07;2.15;;;11.30;61.00;;;;;;5033973;28;20036;-73
2023/05/19 04:28:43;;;;;;;4.20;1.90;;;11.40;61.00;;;;;;5034168;28;20029;-73
2023/05/19 04:31:11;;;;;;;4.53;2.38;;;11.40;60.80;;;;;;5034031;28;20022;-73
2023/05/19 04:33:37;;;;;;;3.38;2.40;;;11.40;60.50;;;;;;5034068;28;20351;-72
2023/05/19 04:36:07;;;;;;;5.60;3.22;;;11.40;60.70;;;;;;5033886;28;20109;-73
2023/05/19 04:38:33;;;;;;;7.00;3.10;;;11.40;60.90;;;;;;5033882;28;20018;-73
2023/05/19 04:41:00;;;;;;;6.28;2.92;;;11.40;61.00;;;;;;5033974;28;20061;-73
2023/05/19 04:43:27;;;;;;;4.72;2.70;;;11.40;61.20;;;;;;5033817;28;20373;-73
2023/05/19 04:45:53;;;;;;;4.55;3.10;;;11.40;61.10;;;;;;5034012;28;20021;-73
2023/05/19 04:48:20;;;;;;;9.60;5.70;;;11.50;61.20;;;;;;5033595;28;20041;-73
2023/05/19 04:50:47;;;;;;;7.78;3.30;;;11.50;61.30;;;;;;5033583;28;20039;-74
2023/05/19 04:53:13;;;;;;;5.13;3.30;;;11.50;61.30;;;;;;5033806;28;20022;-74
2023/05/19 04:55:39;;;;;;;7.05;3.50;;;11.50;61.30;;;;;;5034024;28;20092;-74
2023/05/19 04:58:05;;;;;;;6.57;3.40;;;11.50;61.40;;;;;;5033647;28;20110;-73
2023/05/19 05:00:31;;;;;;;5.90;3.47;;;11.50;61.90;;;;;;5033538;28;20460;-73
2023/05/19 05:02:57;;;;;;;6.35;2.92;;;11.50;61.50;;;;;;5033582;28;20025;-74
2023/05/19 05:05:23;;;;;;;8.45;2.72;;;11.50;61.50;;;;;;5033534;28;20025;-73
2023/05/19 05:07:49;;;;;;;7.65;3.10;;;11.50;61.60;;;;;;5032098;28;20038;-73
2023/05/19 05:10:14;;;;;;;6.55;3.40;;;11.50;61.80;;;;;;5033418;28;20032;-73
2023/05/19 05:12:40;;;;;;;4.75;3.13;;;11.50;62.00;;;;;;5033400;28;20281;-73
2023/05/19 05:15:06;;;;;;;5.97;3.47;;;11.60;61.80;;;;;;5033291;28;20101;-74
2023/05/19 05:17:34;;;;;;;5.70;2.78;;;11.60;61.60;;;;;;5033215;28;20095;-73
2023/05/19 05:20:01;;;;;;;6.95;2.83;;;11.70;61.50;;;;;;5033069;28;20567;-74
2023/05/19 05:22:26;;;;;;;6.88;3.20;;;11.70;61.40;;;;;;5032936;28;20466;-74
2023/05/19 05:24:52;;;;;;;3.40;2.45;;;11.80;61.30;;;;;;5032865;28;20017;-74
2023/05/19 05:27:18;;;;;;;7.93;2.42;;;12.00;61.00;;;;;;5033070;28;20486;-74
2023/05/19 05:29:43;;;;;;;6.13;2.85;;;12.10;60.90;;;;;;5033059;28;20032;-74
2023/05/19 05:32:09;;;;;;;3.78;2.38;;;12.20;60.70;;;;;;5031840;28;20056;-74
2023/05/19 05:34:36;;;;;;;9.20;3.55;;;12.30;60.50;;;;;;5032761;28;20025;-74
2023/05/19 05:37:02;;;;;;;6.85;3.75;;;12.40;59.90;;;;;;5032938;28;20021;-74
2023/05/19 05:39:28;;;;;;;5.50;2.78;;;12.50;59.60;;;;;;5033069;28;20382;-73
2023/05/19 05:41:53;;;;;;;5.78;3.08;;;12.50;59.10;;;;;;5033133;28;20022;-73
2023/05/19 05:44:19;;;;;;;6.05;3.28;;;12.60;58.90;;;;;;5032980;28;20474;-73
2023/05/19 05:46:44;;;;;;;6.15;2.70;;;12.70;58.30;;;;;;5032649;28;20041;-73
2023/05/19 05:49:12;;;;;;;7.20;2.63;;;12.70;58.30;;;;;;5032803;28;20045;-74
2023/05/19 05:51:38;;;;;;;6.13;3.38;;;12.80;58.20;;;;;;5031774;28;20375;-75
2023/05/19 05:54:05;;;;;;;6.60;2.80;;;12.80;58.10;;;;;;5033160;28;20056;-74
2023/05/19 05:56:32;;;;;;;8.50;2.90;;;12.90;57.90;;;;;;5032864;28;20501;-74
2023/05/19 05:58:58;;;;;;;6.40;2.90;;;12.90;57.30;;;;;;5031942;28;20029;-75
2023/05/19 06:01:24;;;;;;;8.25;3.42;;;12.90;57.20;;;;;;5033092;28;20022;-73
2023/05/19 06:03:50;;;;;;;8.25;3.50;;;12.90;56.90;;;;;;5032670;28;20029;-73
2023/05/19 06:06:15;;;;;;;4.70;2.50;;;13.00;57.00;;;;;;5032559;28;20394;-73
2023/05/19 06:08:41;;;;;;;6.47;2.75;;;13.10;57.20;;;;;;5032564;28;20038;-73
2023/05/19 06:11:07;;;;;;;7.22;3.65;;;13.20;57.10;;;;;;5032665;28;20026;-73
2023/05/19 06:13:37;;;;;;;7.10;4.03;;;13.30;56.90;;;;;;5032704;28;20445;-73
2023/05/19 06:16:03;;;;;;;7.68;3.25;;;13.40;56.40;;;;;;5032476;28;20032;-73
2023/05/19 06:18:29;;;;;;;6.47;2.67;;;13.50;56.10;;;;;;5032472;28;20053;-73
2023/05/19 06:20:54;;;;;;;7.05;2.75;;;13.50;55.70;;;;;;5032292;28;20041;-73
2023/05/19 06:23:20;;;;;;;4.32;2.38;;;13.60;56.00;;;;;;5032665;28;20037;-73
2023/05/19 06:25:46;;;;;;;10.40;3.08;;;13.70;56.00;;;;;;5032515;28;20028;-73
2023/05/19 06:28:11;;;;;;;8.15;3.20;;;13.70;56.00;;;;;;5032340;28;20025;-72
2023/05/19 06:30:37;;;;;;;6.97;3.25;;;13.70;55.90;;;;;;5032274;28;20052;-72
2023/05/19 06:33:03;;;;;;;7.00;3.22;;;13.90;56.00;;;;;;5031052;28;20033;-72
2023/05/19 06:35:29;;;;;;;6.88;3.00;;;14.00;55.50;;;;;;5032332;28;20026;-72
2023/05/19 06:37:55;;;;;;;3.75;2.33;;;14.00;54.80;;;;;;5032256;28;20037;-74
2023/05/19 06:40:21;;;;;;;7.05;2.80;;;14.10;54.70;;;;;;5032385;28;20097;-73
2023/05/19 06:42:46;;;;;;;9.35;3.00;;;14.10;54.20;;;;;;5032389;28;20025;-73
2023/05/19 06:45:12;;;;;;;10.43;5.63;;;14.20;53.90;;;;;;5032123;28;20083;-74
2023/05/19 06:47:41;;;;;;;8.15;3.50;;;14.10;53.80;;;;;;5034518;28;20042;-73
2023/05/19 06:50:08;;;;;;;6.38;3.15;;;14.10;54.20;;;;;;5036061;28;20048;-74
2023/05/19 06:52:33;;;;;;;8.88;3.50;;;13.90;54.10;;;;;;5034748;28;20030;-72
2023/05/19 06:54:59;;;;;;;6.97;3.42;;;13.80;54.90;;;;;;5035704;28;20363;-72
2023/05/19 06:57:24;;;;;;;8.73;2.83;;;13.80;55.00;;;;;;5035646;28;20022;-72
2023/05/19 06:59:50;;;;;;;11.35;3.30;;;13.80;55.20;;;;;;5035622;28;20507;-72
2023/05/19 07:02:16;;;;;;;8.20;2.70;;;13.90;55.30;;;;;;5035279;28;20025;-73
2023/05/19 07:04:41;;;;;;;6.80;2.63;;;14.00;54.60;;;;;;5035415;28;20397;-73
2023/05/19 07:07:07;;;;;;;6.07;2.95;;;14.00;54.60;;;;;;5035328;28;20029;-72
2023/05/19 07:09:33;;;;;;;9.13;3.15;;;14.10;54.90;;;;;;5035362;28;20163;-72
2023/05/19 07:11:58;;;;;;;9.40;3.40;;;14.10;54.30;;;;;;5035506;28;20030;-71
2023/05/19 07:14:24;;;;;;;6.88;3.53;;;14.10;53.70;;;;;;5034191;28;20458;-74
2023/05/19 07:16:50;;;;;;;15.02;4.10;;;14.00;54.00;;;;;;5035545;28;20024;-78
2023/05/19 07:19:18;;;;;;;6.45;2.20;;;14.00;57.40;;;;;;5034133;28;20116;-75
2023/05/19 07:21:44;;;;;;;8.77;3.03;;;14.00;58.00;;;;;;5035455;28;20101;-76
2023/05/19 07:24:10;;;;;;;6.13;2.70;;;14.30;58.10;;;;;;5036052;28;20037;-79
2023/05/19 07:26:35;;;;;;;6.45;2.60;;;14.50;56.30;;;;;;5035609;28;20067;-74
2023/05/19 07:29:01;;;;;;;6.53;2.95;;;14.70;54.70;;;;;;5035165;28;20533;-77
2023/05/19 07:31:27;;;;;;;6.43;2.72;;;15.00;54.50;;;;;;5036792;28;20021;-74
2023/05/19 07:33:52;;;;;;;10.50;2.38;;;15.20;53.10;;;;;;5036161;28;20025;-76
2023/05/19 07:36:18;;;;;;;7.38;2.55;;;15.40;51.80;;;;;;5035564;28;20021;-80
2023/05/19 07:38:45;;;;;;;6.50;2.50;;;15.60;51.50;;;;;;5034781;28;20029;-80
2023/05/19 07:41:11;;;;;;;8.75;2.63;;;15.90;50.30;;;;;;5035969;28;20072;-81
2023/05/19 07:43:37;;;;;;;9.52;2.47;;;16.10;49.30;;;;;;5034792;28;20049;-76
2023/05/19 07:46:03;;;;;;;7.40;2.92;;;16.20;48.20;;;;;;5035415;28;20021;-78
2023/05/19 07:48:29;;;;;;;6.72;2.80;;;16.40;47.80;;;;;;5035465;28;20026;-81
2023/05/19 07:50:54;;;;;;;6.95;3.00;;;16.50;47.00;;;;;;5034525;28;20111;-81
2023/05/19 07:53:21;;;;;;;8.15;3.35;;;16.40;47.00;;;;;;5035542;28;20026;-77
2023/05/19 07:55:47;;;;;;;7.63;2.50;;;16.50;47.50;;;;;;5034878;28;20032;-82
2023/05/19 07:58:13;;;;;;;7.22;2.30;;;16.50;47.40;;;;;;5036010;28;20025;-74
2023/05/19 08:00:41;;;;;;;5.10;2.55;;;16.70;46.40;;;;;;5034565;28;20031;-72
2023/05/19 08:03:07;;;;;;;5.75;2.72;;;16.50;46.60;;;;;;5034718;28;20029;-74
2023/05/19 08:05:34;;;;;;;5.72;2.70;;;16.30;47.10;;;;;;5034570;28;20036;-73
2023/05/19 08:08:00;;;;;;;7.90;2.83;;;16.00;47.60;;;;;;5034402;28;20033;-73
2023/05/19 08:10:28;;;;;;;4.85;2.88;;;15.70;48.30;;;;;;5034584;28;20104;-75
2023/05/19 08:12:54;;;;;;;5.93;2.80;;;15.50;49.30;;;;;;5033341;28;20044;-74
2023/05/19 08:15:20;;;;;;;7.43;3.00;;;15.30;50.00;;;;;;5034472;28;20462;-74
2023/05/19 08:17:46;;;;;;;7.53;2.80;;;15.10;50.50;;;;;;5034525;28;20103;-74
2023/05/19 08:20:11;;;;;;;7.40;2.97;;;15.00;50.90;;;;;;5032815;28;20057;-74
2023/05/19 08:22:37;;;;;;;5.72;2.88;;;14.90;51.70;;;;;;5034380;28;20033;-74
2023/05/19 08:25:04;;;;;;;8.48;3.03;;;14.90;52.10;;;;;;5034239;28;20030;-73
2023/05/19 08:27:30;;;;;;;10.57;2.72;;;15.00;51.30;;;;;;5032715;28;20041;-73
2023/05/19 08:29:56;;;;;;;4.05;2.58;;;14.80;51.80;;;;;;5034282;28;20053;-73
2023/05/19 08:32:21;;;;;;;7.47;2.92;;;14.80;51.60;;;;;;5033952;28;20367;-73
2023/05/19 08:34:47;;;;;;;6.32;2.90;;;14.80;51.90;;;;;;5033624;28;20033;-73
2023/05/19 08:37:12;;;;;;;6.95;2.58;;;14.70;51.90;;;;;;5033541;28;20029;-72
2023/05/19 08:39:38;;;;;;;6.13;3.80;;;14.80;51.50;;;;;;5033629;28;20028;-75
2023/05/19 08:42:06;;;;;;;5.53;3.35;;;14.80;51.80;;;;;;5033722;28;20085;-73
2023/05/19 08:44:32;;;;;;;4.32;2.30;;;14.80;52.00;;;;;;5033877;28;20401;-73
2023/05/19 08:47:02;;;;;;;4.82;2.55;;;14.90;52.10;;;;;;5033911;28;20041;-74
2023/05/19 08:49:32;;;;;;;7.07;2.70;;;15.00;51.90;;;;;;5037623;28;20117;-73
2023/05/19 08:52:13;;;;;;;6.00;2.83;;;15.20;52.00;;;;;;5033670;28;20410;-73
2023/05/19 08:55:01;;;;;;;7.55;2.65;;;15.30;50.70;;;;;;5033630;28;20029;-72
2023/05/19 08:57:27;;;;;;;4.30;2.35;;;15.30;51.10;;;;;;5033745;28;20029;-74
2023/05/19 08:59:54;;;;;;;5.75;2.90;;;15.30;51.40;;;;;;5033460;28;20022;-73
2023/05/19 09:02:21;;;;;;;6.07;2.08;;;15.40;50.80;;;;;;5033502;28;20025;-72
2023/05/19 09:04:47;;;;;;;6.90;2.53;;;15.40;50.90;;;;;;5033425;28;20018;-73
2023/05/19 09:07:14;;;;;;;7.53;2.50;;;15.60;51.10;;;;;;5033214;28;20033;-73
2023/05/19 09:09:42;;;;;;;4.60;2.70;;;15.60;49.80;;;;;;5031588;28;20026;-73
2023/05/19 09:12:09;;;;;;;7.72;2.97;;;15.60;49.80;;;;;;5033137;28;20052;-73
2023/05/19 09:14:36;;;;;;;6.53;2.85;;;15.60;50.20;;;;;;5031497;28;20022;-72
2023/05/19 09:17:01;;;;;;;4.15;2.88;;;15.60;50.00;;;;;;5032714;28;20128;-73
2023/05/19 09:19:30;;;;;;;4.95;2.60;;;15.50;49.80;;;;;;5031801;28;20036;-73
2023/05/19 09:22:02;;;;;;;6.47;3.70;;;15.60;50.40;;;;;;5031590;28;20017;-72
2023/05/19 09:24:28;;;;;;;8.75;3.00;;;15.60;50.60;;;;;;5031698;28;20022;-72
2023/05/19 09:26:57;;;;;;;3.50;2.30;;;15.60;50.40;;;;;;5031703;28;20480;-72
2023/05/19 09:29:23;;;;;;;5.30;2.50;;;15.50;50.90;;;;;;5029468;28;20104;-73
2023/05/19 09:31:54;;;;;;;4.78;2.55;;;15.40;51.20;;;;;;5031595;28;20021;-72
2023/05/19 09:34:26;;;;;;;6.03;2.45;;;15.50;51.60;;;;;;5031714;28;20383;-75
2023/05/19 09:36:52;;;;;;;4.75;2.42;;;15.40;50.40;;;;;;5030397;28;20466;-73
2023/05/19 09:39:20;;;;;;;4.45;2.60;;;15.30;50.50;;;;;;5031796;28;20041;-74
2023/05/19 09:41:46;;;;;;;4.20;2.30;;;15.30;50.60;;;;;;5030464;28;20022;-73
2023/05/19 09:44:29;;;;;;;3.75;2.20;;;15.30;50.30;;;;;;5032713;28;20097;-74
2023/05/19 09:46:55;;;;;;;7.20;3.08;;;15.30;50.70;;;;;;5031370;28;20152;-73
2023/05/19 09:49:28;;;;;;;5.45;2.63;;;15.40;50.90;;;;;;5031494;28;20021;-73
2023/05/19 09:51:58;;;;;;;9.98;4.13;;;15.50;51.10;;;;;;5031452;28;20029;-74
2023/05/19 09:54:27;;;;;;;14.88;4.20;;;15.60;52.00;;;;;;5036436;28;20037;-74
2023/05/19 09:56:56;;;;;;;14.15;3.85;;;15.40;53.30;;;;;;5031546;28;20033;-74
2023/05/19 09:59:24;;;;;;;8.50;3.83;;;15.40;53.50;;;;;;5032669;28;20051;-74
2023/05/19 10:01:57;;;;;;;12.07;3.90;;;15.40;53.70;;;;;;5032561;28;20128;-75
2023/05/19 10:04:25;;;;;;;10.38;4.20;;;15.40;53.50;;;;;;5032904;28;20022;-74
2023/05/19 10:06:58;;;;;;;8.43;4.10;;;14.90;54.80;;;;;;5029503;28;20482;-73
2023/05/19 10:09:25;;;;;;;11.90;5.05;;;14.80;55.40;;;;;;5032018;28;20033;-73
2023/05/19 10:11:56;;;;;;;13.98;4.47;;;14.60;56.40;;;;;;5031880;28;20022;-74
2023/05/19 10:14:26;;;;;;;9.20;4.35;;;14.40;57.10;;;;;;5030486;28;20056;-74
2023/05/19 10:16:53;;;;;;;13.63;4.32;;;14.40;57.60;;;;;;5031531;28;20039;-75
2023/05/19 10:19:27;;;;;;;11.63;4.68;;;14.40;57.70;;;;;;5030999;28;20026;-74
2023/05/19 10:21:53;;;;;;;10.07;4.15;;;14.10;57.50;;;;;;5033799;28;20124;-74
2023/05/19 10:24:20;;;;;;;12.70;4.30;;;14.00;57.90;;;;;;5035084;28;20057;-74
2023/05/19 10:26:53;;;;;;;11.52;4.32;;;14.10;58.80;;;;;;5036405;28;20362;-75
2023/05/19 10:29:26;;;;;;;9.63;3.60;;;14.20;58.50;;;;;;5036991;28;20044;-74
2023/05/19 10:31:55;;;;;;;10.25;4.72;;;14.20;58.90;;;;;;5036202;28;20076;-73
2023/05/19 10:34:39;;;;;;;12.25;4.45;;;14.30;58.40;;;;;;5036138;28;20104;-72
2023/05/19 10:37:23;;;;;;;11.98;4.90;;;14.10;58.70;;;;;;5035348;28;20026;-73
2023/05/19 10:39:51;;;;;;;8.02;3.85;;;14.10;59.40;;;;;;5036318;28;20022;-73
2023/05/19 10:42:47;;;;;;;7.53;3.85;;;14.10;59.20;;;;;;5036270;28;20104;-74
2023/05/19 10:45:22;;;;;;;10.30;4.55;;;14.20;58.70;;;;;;5021383;28;20029;-72
2023/05/19 10:47:50;;;;;;;9.23;4.13;;;14.30;58.30;;;;;;5036008;28;20049;-72
2023/05/19 10:50:16;;;;;;;8.85;4.03;;;14.40;58.10;;;;;;5034402;28;20024;-72
2023/05/19 10:52:43;;;;;;;14.65;6.35;;;14.60;58.00;;;;;;5035903;28;20136;-72
2023/05/19 10:55:34;;;;;;;10.45;4.40;;;14.70;57.80;;;;;;5035675;28;20422;-72
2023/05/19 10:58:00;;;;;;;8.68;4.40;;;14.80;57.30;;;;;;5035009;28;20478;-73
2023/05/19 11:00:27;;;;;;;10.40;4.72;;;15.00;56.40;;;;;;5035551;28;20087;-77
2023/05/19 11:02:56;;;;;;;9.10;4.00;;;15.00;56.30;;;;;;5035868;28;20026;-76
2023/05/19 11:05:28;;;;;;;11.70;4.10;;;15.00;55.70;;;;;;5035749;28;20022;-78
2023/05/19 11:07:56;;;;;;;8.38;3.80;;;14.90;55.50;;;;;;5035395;28;20038;-78
2023/05/19 11:10:22;;;;;;;8.30;4.03;;;14.90;55.90;;;;;;5035713;28;20105;-79
2023/05/19 11:12:48;;;;;;;10.55;4.60;;;14.70;56.70;;;;;;5035653;28;20025;-75
2023/05/19 11:15:15;;;;;;;10.48;4.13;;;14.60;57.00;;;;;;5035445;28;20025;-76
2023/05/19 11:17:43;;;;;;;10.45;4.43;;;14.60;57.70;;;;;;5035908;28;20022;-76
2023/05/19 11:20:26;;;;;;;12.60;4.53;;;14.60;58.00;;;;;;5040404;28;20043;-75
2023/05/19 11:23:07;;;;;;;37.38;7.43;;;14.60;57.50;;;;;;5035732;28;20033;-73
2023/05/19 11:25:46;;;;;;;19.45;5.85;;;14.60;62.00;;;;;;5035589;28;20029;-78
2023/05/19 11:28:15;;;;;;;9.00;4.60;;;14.60;60.00;;;;;;5035353;28;20033;-73
2023/05/19 11:30:42;;;;;;;11.70;4.75;;;14.60;57.10;;;;;;5035144;28;20075;-72
2023/05/19 11:33:08;;;;;;;13.52;4.80;;;14.40;56.90;;;;;;5033518;28;20022;-73
2023/05/19 11:35:35;;;;;;;9.48;4.38;;;14.30;57.30;;;;;;5035219;28;20021;-72
2023/05/19 11:38:01;;;;;;;9.70;4.25;;;14.30;57.50;;;;;;5034123;28;20075;-72
2023/05/19 11:40:28;;;;;;;14.50;4.85;;;14.20;58.20;;;;;;5034964;28;20013;-73
2023/05/19 11:42:53;;;;;;;7.15;3.50;;;14.20;58.40;;;;;;5035099;28;20048;-73
2023/05/19 11:45:26;;;;;;;9.55;4.45;;;14.30;58.60;;;;;;5035306;28;20041;-72
2023/05/19 11:47:54;;;;;;;10.55;4.10;;;14.40;58.00;;;;;;5034724;28;20087;-73
2023/05/19 11:50:20;;;;;;;12.68;4.82;;;14.40;58.20;;;;;;5034943;28;20104;-73
2023/05/19 11:52:46;;;;;;;8.50;4.28;;;14.40;58.00;;;;;;5033502;28;20057;-72
2023/05/19 11:55:22;;;;;;;14.25;7.15;;;14.40;58.10;;;;;;5034731;28;20053;-72
2023/05/19 11:58:01;;;;;;;13.52;4.65;;;14.50;58.30;;;;;;5034907;28;20017;-72
2023/05/19 12:00:35;;;;;;;11.80;4.18;;;14.50;57.70;;;;;;5034766;28;20052;-72
2023/05/19 12:03:01;;;;;;;13.45;4.90;;;14.60;57.30;;;;;;5033452;28;20025;-75
2023/05/19 12:05:28;;;;;;;11.95;4.68;;;14.40;57.30;;;;;;5033278;28;20091;-74
2023/05/19 12:07:53;;;;;;;10.77;4.40;;;14.40;57.70;;;;;;5034609;28;20481;-75
2023/05/19 12:10:23;;;;;;;12.60;5.03;;;14.40;57.90;;;;;;5034907;28;20030;-74
2023/05/19 12:12:50;;;;;;;10.73;4.65;;;14.40;57.60;;;;;;5034766;28;20056;-73
2023/05/19 12:15:23;;;;;;;10.25;4.15;;;14.30;58.10;;;;;;5036169;28;20041;-74
2023/05/19 12:18:01;;;;;;;12.20;4.63;;;14.40;58.40;;;;;;5034723;28;20017;-74
2023/05/19 12:20:31;;;;;;;10.63;4.57;;;14.50;57.90;;;;;;5032422;28;20385;-74
2023/05/19 12:22:57;;;;;;;10.35;4.20;;;14.40;57.40;;;;;;5034194;28;20033;-74
2023/05/19 12:25:23;;;;;;;7.65;3.70;;;14.40;57.90;;;;;;5034535;28;20067;-73
2023/05/19 12:27:51;;;;;;;8.93;4.30;;;14.50;58.00;;;;;;5034044;28;20029;-73
2023/05/19 12:30:17;;;;;;;9.93;4.25;;;14.60;57.80;;;;;;5034235;28;20078;-73
2023/05/19 12:32:44;;;;;;;7.88;3.78;;;14.60;57.10;;;;;;5034102;28;20420;-74
2023/05/19 12:35:10;;;;;;;10.52;4.38;;;14.50;57.30;;;;;;5034238;28;20105;-74
2023/05/19 12:37:40;;;;;;;12.32;4.63;;;14.60;58.00;;;;;;5033902;28;20064;-73
2023/05/19 12:40:06;;;;;;;9.07;4.13;;;14.60;58.10;;;;;;5033877;28;20025;-73
2023/05/19 12:42:34;;;;;;;9.48;3.85;;;14.50;57.80;;;;;;5033627;28;20029;-74
2023/05/19 12:45:03;;;;;;;10.25;4.25;;;14.40;57.60;;;;;;5031899;28;20104;-74
2023/05/19 12:47:34;;;;;;;9.68;4.38;;;14.40;57.70;;;;;;5033194;28;20179;-73
2023/05/19 12:50:03;;;;;;;9.77;4.63;;;14.40;58.00;;;;;;5032959;28;20022;-73